createdAt,value
2023-03-24T00:02:24.069Z,43.40
2023-03-24T00:04:58.768Z,43.43
2023-03-24T00:07:35.372Z,43.43
2023-03-24T00:10:11.352Z,43.38
2023-03-24T00:12:43.921Z,43.45
2023-03-24T00:15:19.691Z,43.49
2023-03-24T00:17:53.236Z,43.47
2023-03-24T00:20:26.716Z,43.38
2023-03-24T00:23:02.110Z,43.46
2023-03-24T00:25:36.500Z,43.51
2023-03-24T00:28:11.256Z,43.47
2023-03-24T00:30:52.030Z,43.53
2023-03-24T00:33:28.527Z,43.50
2023-03-24T00:36:04.090Z,43.53
2023-03-24T00:38:36.879Z,43.55
2023-03-24T00:41:12.111Z,43.63
2023-03-24T00:43:46.117Z,43.65
2023-03-24T00:46:30.101Z,43.59
2023-03-24T00:49:06.344Z,43.66
2023-03-24T00:51:39.877Z,43.68
2023-03-24T00:54:14.117Z,43.80
2023-03-24T00:56:50.509Z,43.83
2023-03-24T00:59:24.859Z,43.87
2023-03-24T01:01:58.008Z,43.87
2023-03-24T01:04:32.089Z,43.93
2023-03-24T01:07:04.723Z,43.93
2023-03-24T01:09:39.129Z,43.95
2023-03-24T01:12:11.664Z,43.97
2023-03-24T01:14:44.367Z,43.92
2023-03-24T01:17:16.487Z,43.92
2023-03-24T01:19:48.848Z,43.88
2023-03-24T01:22:21.878Z,43.93
2023-03-24T01:24:54.652Z,43.95
2023-03-24T01:27:29.637Z,43.96
2023-03-24T01:30:05.747Z,43.93
2023-03-24T01:32:38.950Z,43.96
2023-03-24T01:35:12.916Z,43.95
2023-03-24T01:37:45.477Z,43.96
2023-03-24T01:40:22.333Z,43.95
2023-03-24T01:42:57.589Z,44.01
2023-03-24T01:46:08.062Z,44.01
2023-03-24T01:48:46.753Z,43.95
2023-03-24T01:51:23.852Z,44.03
2023-03-24T01:53:59.356Z,43.96
2023-03-24T01:56:38.158Z,43.98
2023-03-24T01:59:13.868Z,43.98
2023-03-24T02:01:49.363Z,44.03
2023-03-24T02:04:25.856Z,44.06
2023-03-24T02:06:58.673Z,44.10
2023-03-24T02:09:31.038Z,44.11
2023-03-24T02:12:05.240Z,44.14
2023-03-24T02:14:38.563Z,44.14
2023-03-24T02:17:26.296Z,44.18
2023-03-24T02:20:29.918Z,44.23
2023-03-24T02:23:34.730Z,44.37
2023-03-24T02:26:28.769Z,44.30
2023-03-24T02:29:12.750Z,44.30
2023-03-24T02:32:16.267Z,44.30
2023-03-24T02:35:12.190Z,44.43
2023-03-24T02:38:05.248Z,44.47
2023-03-24T02:40:46.614Z,44.47
2023-03-24T02:43:28.212Z,44.49
2023-03-24T02:46:14.029Z,44.52
2023-03-24T02:49:01.329Z,44.58
2023-03-24T02:51:36.433Z,44.62
2023-03-24T02:54:12.212Z,44.65
2023-03-24T02:56:50.174Z,44.70
2023-03-24T02:59:24.099Z,44.78
2023-03-24T03:02:03.882Z,44.76
2023-03-24T03:04:38.601Z,44.82
2023-03-24T03:07:16.941Z,44.90
2023-03-24T03:09:57.571Z,44.88
2023-03-24T03:12:34.466Z,44.93
2023-03-24T03:15:11.446Z,45.05
2023-03-24T03:17:53.277Z,45.18
2023-03-24T03:20:31.228Z,45.31
2023-03-24T03:23:05.771Z,45.50
2023-03-24T03:25:42.396Z,45.66
2023-03-24T03:28:20.853Z,45.82
2023-03-24T03:30:56.159Z,45.97
2023-03-24T03:33:32.121Z,46.09
2023-03-24T03:36:12.131Z,46.30
2023-03-24T03:38:49.281Z,46.45
2023-03-24T03:41:21.910Z,46.66
2023-03-24T03:43:54.662Z,46.77
2023-03-24T03:46:28.964Z,46.98
2023-03-24T03:49:02.670Z,47.12
2023-03-24T03:51:36.194Z,47.19
2023-03-24T03:54:11.574Z,47.26
2023-03-24T03:56:46.676Z,47.45
2023-03-24T03:59:33.967Z,47.62
2023-03-24T04:02:18.206Z,47.63
2023-03-24T04:05:06.821Z,47.72
2023-03-24T04:07:54.197Z,47.88
2023-03-24T04:10:32.561Z,48.03
2023-03-24T04:13:15.727Z,48.16
2023-03-24T04:15:54.762Z,48.32
2023-03-24T04:18:46.173Z,48.58
2023-03-24T04:21:33.921Z,48.74
2023-03-24T04:24:20.096Z,48.95
2023-03-24T04:27:01.182Z,49.10
2023-03-24T04:29:42.404Z,49.40
2023-03-24T04:32:20.217Z,49.51
2023-03-24T04:35:02.659Z,49.71
2023-03-24T04:37:38.560Z,49.98
2023-03-24T04:40:14.970Z,50.17
2023-03-24T04:42:52.908Z,50.40
2023-03-24T04:45:27.092Z,50.66
2023-03-24T04:48:03.958Z,50.92
2023-03-24T04:50:39.829Z,50.97
2023-03-24T04:53:13.652Z,51.16
2023-03-24T04:56:13.173Z,51.43
2023-03-24T04:58:45.308Z,51.64
2023-03-24T05:01:22.110Z,51.85
2023-03-24T05:03:55.724Z,51.97
2023-03-24T05:06:31.549Z,52.09
2023-03-24T05:09:05.810Z,52.26
2023-03-24T05:11:39.311Z,52.33
2023-03-24T05:14:11.348Z,52.40
2023-03-24T05:16:45.651Z,52.63
2023-03-24T05:19:21.870Z,52.77
2023-03-24T05:21:55.020Z,52.88
2023-03-24T05:24:28.412Z,52.99
2023-03-24T05:27:02.599Z,53.09
2023-03-24T05:29:36.619Z,53.25
2023-03-24T05:32:09.365Z,53.25
2023-03-24T05:34:41.961Z,53.23
2023-03-24T05:37:18.815Z,53.31
2023-03-24T05:39:50.762Z,53.26
2023-03-24T05:42:22.844Z,53.26
2023-03-24T05:44:55.400Z,53.34
2023-03-24T05:47:28.384Z,53.35
2023-03-24T05:50:04.293Z,53.42
2023-03-24T05:52:37.008Z,53.49
2023-03-24T05:55:10.983Z,53.73
2023-03-24T05:57:43.658Z,53.84
2023-03-24T06:00:17.973Z,53.72
2023-03-24T06:02:50.727Z,53.74
2023-03-24T06:05:31.614Z,53.78
2023-03-24T06:08:06.081Z,53.84
2023-03-24T06:10:38.681Z,53.91
2023-03-24T06:13:14.953Z,53.97
2023-03-24T06:15:48.592Z,54.04
2023-03-24T06:18:21.586Z,54.08
2023-03-24T06:20:57.138Z,54.21
2023-03-24T06:23:31.222Z,54.32
2023-03-24T06:26:03.650Z,54.39
2023-03-24T06:28:39.953Z,54.33
2023-03-24T06:31:18.744Z,54.34
2023-03-24T06:33:51.090Z,54.32
2023-03-24T06:36:25.859Z,54.37
2023-03-24T06:38:59.504Z,54.38
2023-03-24T06:41:32.562Z,54.36
2023-03-24T06:44:06.415Z,54.34
2023-03-24T06:46:38.296Z,54.39
2023-03-24T06:49:11.111Z,54.41
2023-03-24T06:51:43.554Z,54.33
2023-03-24T06:54:19.816Z,54.25
2023-03-24T06:56:58.751Z,54.25
2023-03-24T06:59:31.644Z,54.21
2023-03-24T07:02:04.651Z,54.22
2023-03-24T07:04:37.035Z,54.11
2023-03-24T07:07:52.710Z,54.13
2023-03-24T07:10:08.770Z,54.09
2023-03-24T07:12:43.635Z,54.04
2023-03-24T07:15:16.442Z,54.02
2023-03-24T07:17:49.196Z,53.92
2023-03-24T07:20:22.229Z,53.74
2023-03-24T07:22:58.317Z,53.73
2023-03-24T07:25:30.910Z,53.48
2023-03-24T07:28:04.460Z,53.36
2023-03-24T07:30:51.229Z,53.28
2023-03-24T07:33:27.477Z,53.05
2023-03-24T07:36:01.009Z,53.13
2023-03-24T07:38:35.920Z,53.15
2023-03-24T07:41:08.935Z,53.02
2023-03-24T07:43:42.237Z,52.82
2023-03-24T07:46:15.890Z,52.66
2023-03-24T07:48:50.631Z,52.62
2023-03-24T07:51:25.462Z,52.44
2023-03-24T07:53:57.891Z,52.16
2023-03-24T07:56:34.430Z,51.96
2023-03-24T07:59:06.388Z,51.91
2023-03-24T08:01:41.565Z,51.78
2023-03-24T08:04:16.259Z,51.57
2023-03-24T08:06:50.117Z,51.52
2023-03-24T08:09:25.191Z,51.37
2023-03-24T08:12:07.119Z,51.12
2023-03-24T08:14:46.330Z,51.04
2023-03-24T08:17:18.196Z,50.88
2023-03-24T08:20:00.185Z,50.75
2023-03-24T08:22:34.491Z,50.60
2023-03-24T08:25:11.055Z,50.52
2023-03-24T08:27:45.620Z,50.45
2023-03-24T08:30:27.409Z,50.36
2023-03-24T08:33:06.688Z,49.97
2023-03-24T08:35:50.394Z,49.41
2023-03-24T08:38:32.974Z,49.29
2023-03-24T08:41:14.196Z,48.80
2023-03-24T08:43:49.685Z,48.51
2023-03-24T08:46:26.236Z,48.44
2023-03-24T08:49:06.066Z,48.12
2023-03-24T08:51:45.281Z,47.51
2023-03-24T08:54:24.721Z,47.29
2023-03-24T08:57:03.191Z,46.96
2023-03-24T08:59:50.872Z,46.38
2023-03-24T09:02:33.726Z,46.24
2023-03-24T09:05:10.061Z,45.80
2023-03-24T09:07:47.173Z,45.48
2023-03-24T09:10:28.405Z,45.54
2023-03-24T09:13:08.483Z,45.41
2023-03-24T09:15:54.005Z,44.96
2023-03-24T09:18:35.370Z,44.81
2023-03-24T09:21:11.310Z,44.76
2023-03-24T09:23:51.045Z,44.71
2023-03-24T09:26:29.696Z,44.37
2023-03-24T09:29:08.161Z,44.08
2023-03-24T09:31:47.245Z,43.18
2023-03-24T09:34:25.296Z,43.09
2023-03-24T09:37:11.366Z,42.69
2023-03-24T09:39:49.562Z,42.78
2023-03-24T09:42:27.017Z,42.48
2023-03-24T09:45:03.595Z,42.17
2023-03-24T09:47:46.482Z,41.92
2023-03-24T09:50:29.564Z,41.83
2023-03-24T09:53:11.273Z,41.49
2023-03-24T09:55:46.534Z,40.58
2023-03-24T09:58:24.358Z,40.25
2023-03-24T10:00:57.889Z,39.82
2023-03-24T10:03:56.583Z,39.79
2023-03-24T10:06:31.395Z,39.65
2023-03-24T10:09:16.070Z,39.77
2023-03-24T10:11:53.269Z,39.31
2023-03-24T10:14:33.614Z,39.32
2023-03-24T10:17:13.237Z,39.30
2023-03-24T10:19:54.116Z,38.97
2023-03-24T10:22:33.858Z,38.43
2023-03-24T10:25:13.652Z,37.92
2023-03-24T10:27:53.973Z,37.75
2023-03-24T10:30:29.634Z,37.94
2023-03-24T10:33:04.516Z,37.89
2023-03-24T10:35:38.862Z,37.36
2023-03-24T10:38:20.360Z,37.06
2023-03-24T10:40:52.713Z,36.80
2023-03-24T10:43:28.314Z,36.58
2023-03-24T10:46:01.248Z,36.70
2023-03-24T10:48:46.537Z,36.73
2023-03-24T10:51:21.415Z,35.61
2023-03-24T10:53:54.381Z,35.98
2023-03-24T10:56:43.374Z,36.32
2023-03-24T10:59:27.667Z,36.02
2023-03-24T11:02:08.646Z,35.66
2023-03-24T11:04:43.181Z,35.21
2023-03-24T11:07:20.935Z,35.31
2023-03-24T11:10:03.888Z,35.49
2023-03-24T11:12:38.888Z,34.75
2023-03-24T11:15:23.314Z,35.17
2023-03-24T11:18:01.512Z,34.95
2023-03-24T11:20:43.394Z,35.02
2023-03-24T11:23:33.100Z,34.67
2023-03-24T11:26:14.128Z,34.66
2023-03-24T11:28:52.323Z,34.57
2023-03-24T11:31:30.837Z,34.08
2023-03-24T11:34:09.396Z,34.19
2023-03-24T11:36:46.900Z,34.23
2023-03-24T11:39:22.742Z,34.11
2023-03-24T11:42:03.202Z,33.77
2023-03-24T11:44:51.379Z,33.82
2023-03-24T11:47:28.979Z,33.59
2023-03-24T11:50:16.518Z,33.02
2023-03-24T11:52:50.553Z,32.95
2023-03-24T11:55:28.988Z,32.62
2023-03-24T11:58:04.443Z,32.79
2023-03-24T12:00:42.237Z,32.88
2023-03-24T12:03:42.244Z,32.71
2023-03-24T12:06:23.494Z,32.77
2023-03-24T12:09:06.605Z,33.05
2023-03-24T12:11:53.221Z,32.80
2023-03-24T12:14:32.027Z,32.43
2023-03-24T12:17:08.635Z,32.61
2023-03-24T12:20:16.491Z,32.65
2023-03-24T12:22:56.695Z,32.57
2023-03-24T12:25:48.405Z,32.90
2023-03-24T12:28:36.452Z,33.28
2023-03-24T12:31:19.590Z,33.22
2023-03-24T12:33:57.485Z,33.08
2023-03-24T12:36:44.426Z,33.18
2023-03-24T12:39:19.678Z,33.10
2023-03-24T12:42:02.091Z,33.42
2023-03-24T12:45:07.936Z,33.44
2023-03-24T12:47:58.443Z,33.75
2023-03-24T12:50:36.478Z,33.92
2023-03-24T12:53:25.638Z,34.18
2023-03-24T12:56:04.508Z,34.50
2023-03-24T12:58:46.185Z,34.79
2023-03-24T13:01:38.596Z,34.96
2023-03-24T13:04:14.661Z,34.94
2023-03-24T13:06:53.263Z,34.71
2023-03-24T13:09:35.789Z,34.87
2023-03-24T13:12:14.196Z,34.77
2023-03-24T13:14:57.888Z,34.60
2023-03-24T13:17:37.501Z,34.57
2023-03-24T13:20:31.651Z,34.55
2023-03-24T13:23:43.764Z,34.67
2023-03-24T13:26:26.959Z,34.73
2023-03-24T13:29:19.801Z,34.71
2023-03-24T13:31:59.729Z,34.65
2023-03-24T13:34:40.306Z,34.69
2023-03-24T13:37:18.867Z,34.65
2023-03-24T13:39:58.198Z,34.98
2023-03-24T13:42:36.970Z,35.08
2023-03-24T13:45:27.153Z,35.18
2023-03-24T13:48:20.045Z,35.17
2023-03-24T13:50:58.418Z,35.19
2023-03-24T13:53:47.162Z,35.30
2023-03-24T13:56:27.667Z,35.46
2023-03-24T13:59:30.780Z,35.34
2023-03-24T14:02:46.540Z,35.51
2023-03-24T14:05:51.928Z,35.38
2023-03-24T14:08:48.893Z,35.44
2023-03-24T14:11:49.800Z,35.50
2023-03-24T14:14:26.530Z,35.65
2023-03-24T14:17:20.375Z,35.83
2023-03-24T14:20:26.991Z,35.95
2023-03-24T14:23:06.524Z,36.08
2023-03-24T14:25:41.292Z,36.28
2023-03-24T14:28:30.789Z,36.26
2023-03-24T14:31:17.305Z,36.19
2023-03-24T14:34:06.203Z,36.35
2023-03-24T14:36:45.349Z,36.23
2023-03-24T14:39:37.241Z,36.23
2023-03-24T14:43:02.912Z,36.17
2023-03-24T14:46:04.267Z,36.07
2023-03-24T14:48:42.848Z,36.13
2023-03-24T14:51:39.608Z,36.21
2023-03-24T14:54:21.824Z,36.14
2023-03-24T14:57:04.264Z,36.08
2023-03-24T14:59:56.034Z,35.80
2023-03-24T15:02:42.981Z,35.69
2023-03-24T15:05:53.509Z,35.17
2023-03-24T15:08:32.116Z,35.55
2023-03-24T15:11:06.542Z,35.86
2023-03-24T15:13:44.440Z,35.75
2023-03-24T15:16:30.052Z,35.84
2023-03-24T15:19:09.712Z,35.90
2023-03-24T15:21:49.425Z,35.95
2023-03-24T15:24:30.989Z,35.84
2023-03-24T15:27:23.093Z,35.66
2023-03-24T15:29:59.725Z,35.60
2023-03-24T15:32:40.377Z,35.48
2023-03-24T15:35:17.840Z,35.40
2023-03-24T15:37:56.546Z,35.48
2023-03-24T15:40:37.660Z,35.66
2023-03-24T15:43:23.590Z,35.57
2023-03-24T15:46:12.028Z,36.16
2023-03-24T15:48:52.072Z,36.77
2023-03-24T15:51:50.247Z,37.37
2023-03-24T15:54:25.864Z,38.01
2023-03-24T15:57:12.767Z,38.59
2023-03-24T15:59:49.432Z,39.01
2023-03-24T16:02:34.473Z,39.57
2023-03-24T16:05:19.769Z,40.25
2023-03-24T16:08:03.589Z,40.81
2023-03-24T16:10:43.216Z,41.40
2023-03-24T16:13:20.705Z,41.79
2023-03-24T16:16:01.036Z,42.26
2023-03-24T16:18:37.372Z,51.98
2023-03-24T16:21:16.698Z,47.85
2023-03-24T16:23:51.404Z,45.02
2023-03-24T16:26:24.780Z,45.14
2023-03-24T16:29:01.802Z,45.36
2023-03-24T16:31:36.154Z,45.62
2023-03-24T16:34:11.566Z,45.84
2023-03-24T16:36:44.959Z,46.01
2023-03-24T16:39:18.769Z,46.31
2023-03-24T16:41:52.997Z,46.46
2023-03-24T16:44:27.202Z,46.70
2023-03-24T16:47:01.844Z,46.89
2023-03-24T16:49:38.112Z,47.55
2023-03-24T16:52:16.096Z,47.86
2023-03-24T16:54:52.949Z,48.11
2023-03-24T16:57:25.507Z,48.42
2023-03-24T17:00:01.454Z,48.61
2023-03-24T17:02:37.872Z,48.77
2023-03-24T20:19:11.544Z,57.08
2023-03-24T20:21:40.883Z,57.08
2023-03-24T20:24:11.168Z,57.06
2023-03-24T20:26:42.708Z,57.01
2023-03-24T20:29:12.750Z,56.85
2023-03-24T20:31:42.922Z,56.96
2023-03-24T20:34:11.720Z,57.06
2023-03-24T20:36:42.802Z,56.99
2023-03-24T20:39:18.543Z,56.87
2023-03-24T20:41:49.406Z,56.95
2023-03-24T20:44:17.960Z,56.91
2023-03-24T20:46:48.161Z,56.81
2023-03-24T20:49:17.186Z,56.79
2023-03-24T20:51:46.905Z,56.78
2023-03-24T20:54:16.996Z,56.89
2023-03-24T20:56:46.691Z,56.96
2023-03-24T20:59:18.325Z,57.02
2023-03-24T21:01:49.472Z,57.13
2023-03-24T21:04:19.755Z,57.02
2023-03-24T21:06:48.740Z,56.99
2023-03-24T21:09:21.724Z,57.03
2023-03-24T21:11:50.362Z,56.92
2023-03-24T21:14:21.372Z,56.84
2023-03-24T21:16:52.156Z,56.81
2023-03-24T21:19:22.320Z,56.72
2023-03-24T21:21:51.171Z,56.72
2023-03-24T21:24:25.008Z,56.66
2023-03-24T21:26:56.448Z,56.69
2023-03-24T21:29:27.393Z,56.69
2023-03-24T21:31:57.624Z,56.74
2023-03-24T21:34:28.442Z,56.69
2023-03-24T21:37:00.928Z,56.64
2023-03-24T21:39:32.903Z,56.57
2023-03-24T21:42:02.787Z,56.50
2023-03-24T21:44:33.960Z,56.57
2023-03-24T21:47:02.557Z,56.60
2023-03-24T21:49:33.294Z,56.68
2023-03-24T21:52:04.194Z,56.63
2023-03-24T21:54:34.220Z,56.57
2023-03-24T21:57:03.400Z,56.67
2023-03-24T21:59:37.142Z,56.66
2023-03-24T22:02:13.795Z,56.63
2023-03-24T22:04:46.495Z,56.59
2023-03-24T22:07:21.876Z,56.54
2023-03-24T22:09:56.221Z,56.59
2023-03-24T22:12:26.599Z,56.54
2023-03-24T22:14:55.841Z,56.52
2023-03-24T22:17:30.174Z,56.51
2023-03-24T22:19:58.739Z,56.51
2023-03-24T22:22:29.365Z,56.37
2023-03-24T22:24:57.959Z,56.29
2023-03-24T22:27:26.703Z,56.38
2023-03-24T22:29:55.169Z,56.36
2023-03-24T22:32:24.335Z,56.27
2023-03-24T22:34:52.837Z,56.35
2023-03-24T22:37:21.338Z,56.32
2023-03-24T22:39:49.927Z,56.27
2023-03-24T22:42:18.386Z,56.22
2023-03-24T22:44:46.910Z,56.23
2023-03-24T22:47:15.577Z,56.24
2023-03-24T22:49:47.309Z,56.17
2023-03-24T22:52:15.811Z,56.14
2023-03-24T22:54:44.360Z,56.17
2023-03-24T22:57:13.408Z,56.15
2023-03-24T22:59:41.769Z,56.15
2023-03-24T23:02:10.700Z,56.14
2023-03-24T23:04:39.850Z,56.14
2023-03-24T23:07:08.518Z,56.15
2023-03-24T23:09:37.686Z,56.27
2023-03-24T23:12:07.006Z,56.16
2023-03-24T23:14:37.473Z,56.22
2023-03-24T23:17:08.847Z,56.29
2023-03-24T23:19:37.883Z,56.29
2023-03-24T23:22:07.676Z,56.28
2023-03-24T23:24:38.744Z,56.34
2023-03-24T23:27:07.243Z,56.28
2023-03-24T23:29:39.639Z,56.36
2023-03-24T23:32:08.443Z,56.75
2023-03-24T23:34:37.465Z,56.81
2023-03-24T23:37:05.840Z,56.80
2023-03-24T23:39:36.072Z,56.78
2023-03-24T23:42:05.206Z,56.94
2023-03-24T23:44:33.755Z,57.19
2023-03-24T23:47:02.284Z,57.16
2023-03-24T23:49:30.856Z,57.17
2023-03-24T23:51:59.200Z,57.25
2023-03-24T23:54:28.540Z,57.18
2023-03-24T23:56:56.974Z,57.31
2023-03-24T23:59:25.489Z,57.25
